Time;durP1;ratioP1;P1;durP2;ratioP2;P2;SDS_P1;SDS_P2;PMS_P1;PMS_P2;Temp;Humidity;BMP_temperature;BMP_pressure;BME280_temperature;BME280_humidity;BME280_pressure;Samples;Min_cycle;Max_cycle;Signal;HPM_P1;HPM_P2
2024/02/29 00:00:30;;;;;;;;;;;;;;;4.54;100.00;95953.16;10360239;28;2024;-64
2024/02/29 00:05:33;;;;;;;;;;;;;;;4.59;100.00;95947.97;10360027;28;2811;-65
2024/02/29 00:10:36;;;;;;;;;;;;;;;4.50;100.00;95946.66;10352276;28;2026;-64
2024/02/29 00:15:38;;;;;;;;;;;;;;;4.52;100.00;95949.94;10355667;28;1881;-65
2024/02/29 00:20:41;;;;;;;;;;;;;;;4.69;100.00;95950.03;10353094;28;1889;-64
2024/02/29 00:25:46;;;;;;;;;;;;;;;4.54;100.00;95947.84;10363222;28;2073;-65
2024/02/29 00:30:49;;;;;;;;;;;;;;;4.41;100.00;95943.53;10373470;28;1994;-66
2024/02/29 00:35:52;;;;;;;;;;;;;;;4.45;100.00;95949.19;10359907;28;2018;-66
2024/02/29 00:41:10;;;;;;;;;;;;;;;4.50;100.00;95952.00;10358245;28;2066;-64
2024/02/29 00:46:14;;;;;;;;;;;;;;;4.57;100.00;95952.69;10352371;28;2035;-64
2024/02/29 00:51:16;;;;;;;;;;;;;;;4.54;100.00;95940.66;10354353;28;2432;-64
2024/02/29 00:56:19;;;;;;;;;;;;;;;4.54;100.00;95932.66;10348979;28;2160;-63
2024/02/29 01:01:22;;;;;;;;;;;;;;;4.67;100.00;95931.63;10354854;28;2042;-65
2024/02/29 01:06:25;;;;;;;;;;;;;;;4.65;100.00;95922.25;10367627;28;2077;-64
2024/02/29 01:11:28;;;;;;;;;;;;;;;4.72;100.00;95910.44;10352562;28;2089;-66
2024/02/29 01:16:30;;;;;;;;;;;;;;;4.70;100.00;95899.19;10362216;28;1978;-67
2024/02/29 01:21:33;;;;;;;;;;;;;;;4.66;100.00;95898.06;10358180;28;2066;-69
2024/02/29 01:26:36;;;;;;;;;;;;;;;4.67;100.00;95885.56;10356368;28;2637;-72
2024/02/29 01:31:38;;;;;;;;;;;;;;;4.62;100.00;95883.56;10354096;28;1994;-72
2024/02/29 01:36:41;;;;;;;;;;;;;;;4.52;100.00;95870.06;10364855;28;2089;-70
2024/02/29 01:41:44;;;;;;;;;;;;;;;4.48;100.00;95858.25;10354298;28;2169;-69
2024/02/29 01:46:46;;;;;;;;;;;;;;;4.40;100.00;95855.94;10350839;28;1987;-64
2024/02/29 01:51:49;;;;;;;;;;;;;;;4.39;100.00;95854.31;10350858;28;1975;-66
2024/02/29 01:56:52;;;;;;;;;;;;;;;4.45;100.00;95848.06;10354427;28;1961;-65
2024/02/29 02:01:55;;;;;;;;;;;;;;;4.41;100.00;95847.72;10358791;28;1906;-73
2024/02/29 02:06:57;;;;;;;;;;;;;;;4.32;100.00;95838.47;10354313;28;2385;-71
2024/02/29 02:12:00;;;;;;;;;;;;;;;4.24;100.00;95839.63;10353109;28;2366;-65
2024/02/29 02:17:02;;;;;;;;;;;;;;;4.21;100.00;95840.09;10349251;28;2128;-64
2024/02/29 02:22:05;;;;;;;;;;;;;;;4.28;100.00;95842.66;10361966;28;2197;-66
2024/02/29 02:27:07;;;;;;;;;;;;;;;4.31;100.00;95832.31;10353251;28;2138;-68
2024/02/29 02:32:11;;;;;;;;;;;;;;;4.36;100.00;95828.16;10353676;28;1996;-64
2024/02/29 02:37:16;;;;;;;;;;;;;;;4.23;100.00;95818.56;10351054;28;2011;-65
2024/02/29 02:42:18;;;;;;;;;;;;;;;4.28;100.00;95816.84;10357954;28;2119;-66
2024/02/29 02:47:21;;;;;;;;;;;;;;;4.27;100.00;95804.59;10352622;28;2230;-64
2024/02/29 02:52:24;;;;;;;;;;;;;;;4.23;100.00;95803.41;10351739;28;1893;-65
2024/02/29 02:57:27;;;;;;;;;;;;;;;4.19;100.00;95804.91;10373830;28;2142;-64
2024/02/29 03:02:30;;;;;;;;;;;;;;;4.31;100.00;95799.59;10351735;28;2019;-65
2024/02/29 03:07:33;;;;;;;;;;;;;;;4.41;100.00;95799.00;10351141;28;2548;-65
2024/02/29 03:12:36;;;;;;;;;;;;;;;4.31;100.00;95795.06;10350300;28;1948;-65
2024/02/29 03:17:38;;;;;;;;;;;;;;;4.50;100.00;95786.94;10351989;28;2156;-70
2024/02/29 03:22:42;;;;;;;;;;;;;;;4.47;100.00;95782.09;10347773;28;2113;-65
2024/02/29 03:27:46;;;;;;;;;;;;;;;4.34;100.00;95775.19;10348713;28;2141;-64
2024/02/29 03:32:48;;;;;;;;;;;;;;;4.32;100.00;95783.38;10350207;28;2033;-64
2024/02/29 03:37:51;;;;;;;;;;;;;;;4.28;100.00;95778.78;10360211;28;2028;-65
2024/02/29 03:42:53;;;;;;;;;;;;;;;4.34;100.00;95778.66;10356594;28;2398;-65
2024/02/29 03:47:56;;;;;;;;;;;;;;;4.30;100.00;95774.84;10355772;28;2022;-65
2024/02/29 03:53:01;;;;;;;;;;;;;;;4.25;100.00;95780.03;10361472;28;2014;-63
2024/02/29 03:58:04;;;;;;;;;;;;;;;4.34;100.00;95781.31;10354195;28;2153;-64
2024/02/29 04:03:07;;;;;;;;;;;;;;;4.43;100.00;95767.63;10364271;28;1987;-64
2024/02/29 04:08:12;;;;;;;;;;;;;;;4.42;100.00;95752.72;10353772;28;2033;-66
2024/02/29 04:13:15;;;;;;;;;;;;;;;4.47;100.00;95744.84;10359740;28;2002;-65
2024/02/29 04:18:18;;;;;;;;;;;;;;;4.36;100.00;95743.00;10358755;28;2091;-67
2024/02/29 04:23:21;;;;;;;;;;;;;;;4.34;100.00;95728.09;10366661;28;2054;-65
2024/02/29 04:28:24;;;;;;;;;;;;;;;4.36;100.00;95725.19;10363008;28;2117;-65
2024/02/29 04:33:26;;;;;;;;;;;;;;;4.36;100.00;95727.03;10360018;28;1936;-66
2024/02/29 04:38:29;;;;;;;;;;;;;;;4.37;100.00;95720.66;10364908;28;2084;-64
2024/02/29 04:43:32;;;;;;;;;;;;;;;4.39;100.00;95721.22;10358909;28;2713;-64
2024/02/29 04:48:34;;;;;;;;;;;;;;;4.36;100.00;95719.88;10352810;28;2141;-65
2024/02/29 04:53:37;;;;;;;;;;;;;;;4.29;100.00;95717.34;10366042;28;2156;-64
2024/02/29 04:58:40;;;;;;;;;;;;;;;4.33;100.00;95707.84;10352977;28;2115;-65
2024/02/29 05:03:42;;;;;;;;;;;;;;;4.43;100.00;95701.09;10363065;28;2103;-65
2024/02/29 05:08:46;;;;;;;;;;;;;;;4.42;100.00;95699.50;10372354;28;2330;-65
2024/02/29 05:13:50;;;;;;;;;;;;;;;4.37;100.00;95702.84;10368980;28;2045;-65
2024/02/29 05:18:53;;;;;;;;;;;;;;;4.43;100.00;95701.09;10362365;28;2002;-65
2024/02/29 05:23:56;;;;;;;;;;;;;;;4.33;100.00;95697.22;10352293;28;2395;-65
2024/02/29 05:29:03;;;;;;;;;;;;;;;4.29;100.00;95704.03;10358067;28;2085;-67
2024/02/29 05:34:05;;;;;;;;;;;;;;;4.41;100.00;95695.22;10362129;28;2029;-68
2024/02/29 05:39:11;;;;;;;;;;;;;;;4.33;100.00;95691.88;10352899;28;2084;-69
2024/02/29 05:44:13;;;;;;;;;;;;;;;4.31;100.00;95693.94;10361132;28;2074;-70
2024/02/29 05:49:15;;;;;;;;;;;;;;;4.29;100.00;95698.72;10355573;28;2039;-72
2024/02/29 05:54:19;;;;;;;;;;;;;;;4.34;100.00;95693.50;10352289;28;1974;-69
2024/02/29 05:59:22;;;;;;;;;;;;;;;4.37;100.00;95683.41;10353164;28;1970;-66
2024/02/29 06:04:25;;;;;;;;;;;;;;;4.42;100.00;95679.00;10350724;28;2588;-65
2024/02/29 06:09:28;;;;;;;;;;;;;;;4.46;100.00;95682.81;10372650;28;1881;-66
2024/02/29 06:14:30;;;;;;;;;;;;;;;4.55;100.00;95680.56;10354896;28;2058;-65
2024/02/29 06:19:38;;;;;;;;;;;;;;;4.72;100.00;95686.75;10355390;28;2081;-65
2024/02/29 06:24:41;;;;;;;;;;;;;;;4.76;100.00;95689.72;10351809;28;2033;-64
2024/02/29 06:29:44;;;;;;;;;;;;;;;4.85;100.00;95691.78;10354625;28;2221;-65
2024/02/29 06:34:49;;;;;;;;;;;;;;;4.91;100.00;95684.69;10356398;28;2068;-66
2024/02/29 06:39:51;;;;;;;;;;;;;;;4.82;100.00;95680.78;10362971;28;2042;-70
2024/02/29 06:44:54;;;;;;;;;;;;;;;4.84;100.00;95681.38;10355583;28;2140;-64
2024/02/29 06:49:56;;;;;;;;;;;;;;;4.78;100.00;95674.34;10359214;28;2005;-65
2024/02/29 06:54:59;;;;;;;;;;;;;;;4.99;100.00;95667.50;10353122;28;1933;-65
2024/02/29 07:00:02;;;;;;;;;;;;;;;5.02;100.00;95667.81;10355481;28;2498;-66
2024/02/29 07:05:05;;;;;;;;;;;;;;;5.15;100.00;95661.38;10357165;28;2404;-64
2024/02/29 07:10:09;;;;;;;;;;;;;;;5.15;100.00;95669.34;10380245;28;1977;-66
2024/02/29 07:15:12;;;;;;;;;;;;;;;5.26;100.00;95663.16;10371043;28;2037;-67
2024/02/29 07:20:23;;;;;;;;;;;;;;;5.32;100.00;95651.53;10366343;28;1880;-66
2024/02/29 07:25:30;;;;;;;;;;;;;;;5.33;100.00;95647.00;10370004;28;1981;-66
2024/02/29 07:30:32;;;;;;;;;;;;;;;5.53;100.00;95641.16;10362461;28;2117;-66
2024/02/29 07:35:36;;;;;;;;;;;;;;;5.53;100.00;95643.81;10365933;28;1986;-67
2024/02/29 07:40:38;;;;;;;;;;;;;;;5.39;100.00;95636.16;10383594;28;2027;-66
2024/02/29 07:45:49;;;;;;;;;;;;;;;5.38;100.00;95642.56;10356922;28;2367;-66
2024/02/29 07:50:52;;;;;;;;;;;;;;;5.73;100.00;95624.66;10358468;28;1909;-65
2024/02/29 07:55:59;;;;;;;;;;;;;;;5.82;100.00;95634.63;10356160;28;2037;-66
2024/02/29 08:01:03;;;;;;;;;;;;;;;6.03;100.00;95622.38;10349956;28;2065;-67
2024/02/29 08:06:06;;;;;;;;;;;;;;;6.01;100.00;95624.50;10358824;28;1991;-66
2024/02/29 08:11:11;;;;;;;;;;;;;;;5.79;100.00;95621.81;10359034;28;2067;-66
2024/02/29 08:16:15;;;;;;;;;;;;;;;6.09;100.00;95617.91;10359033;28;2073;-66
2024/02/29 08:21:17;;;;;;;;;;;;;;;6.14;100.00;95609.97;10355111;28;2285;-68
2024/02/29 08:26:20;;;;;;;;;;;;;;;6.02;100.00;95611.97;10354482;28;1945;-66
2024/02/29 08:31:24;;;;;;;;;;;;;;;5.94;100.00;95600.69;10358346;28;2134;-65
2024/02/29 08:36:29;;;;;;;;;;;;;;;6.20;100.00;95600.97;10353146;28;1927;-66
2024/02/29 08:41:32;;;;;;;;;;;;;;;6.66;100.00;95590.75;10351980;28;3027;-67
2024/02/29 08:46:35;;;;;;;;;;;;;;;6.63;100.00;95588.63;10359069;28;2001;-65
2024/02/29 08:51:37;;;;;;;;;;;;;;;6.53;100.00;95583.16;10360730;28;1944;-66
2024/02/29 08:56:40;;;;;;;;;;;;;;;6.51;100.00;95583.41;10353751;28;2128;-67
2024/02/29 09:01:43;;;;;;;;;;;;;;;6.55;100.00;95568.50;10354629;28;2078;-69
2024/02/29 09:06:45;;;;;;;;;;;;;;;6.69;100.00;95553.69;10363755;28;1993;-66
2024/02/29 09:11:48;;;;;;;;;;;;;;;6.95;100.00;95551.22;10351550;28;2107;-66
2024/02/29 09:16:51;;;;;;;;;;;;;;;6.97;100.00;95538.41;10356594;28;2033;-66
2024/02/29 09:22:03;;;;;;;;;;;;;;;7.12;100.00;95533.13;10364549;28;2770;-65
2024/02/29 09:27:05;;;;;;;;;;;;;;;7.22;100.00;95524.41;10353986;28;2031;-64
2024/02/29 09:32:08;;;;;;;;;;;;;;;7.21;100.00;95512.09;10355924;28;2097;-65
2024/02/29 09:37:11;;;;;;;;;;;;;;;7.51;100.00;95512.28;10350654;28;1901;-65
2024/02/29 09:42:13;;;;;;;;;;;;;;;7.92;100.00;95496.34;10351172;28;2149;-68
2024/02/29 09:47:19;;;;;;;;;;;;;;;8.06;100.00;95485.94;10354338;28;2177;-67
2024/02/29 09:52:21;;;;;;;;;;;;;;;8.17;100.00;95481.44;10354926;28;1973;-66
2024/02/29 09:57:25;;;;;;;;;;;;;;;8.09;100.00;95477.41;10355069;28;2087;-67
2024/02/29 10:02:28;;;;;;;;;;;;;;;7.86;100.00;95476.00;10355643;28;2076;-66
2024/02/29 10:07:31;;;;;;;;;;;;;;;7.99;100.00;95472.81;10357172;28;2523;-66
2024/02/29 10:12:35;;;;;;;;;;;;;;;7.92;100.00;95463.44;10363845;28;2097;-68
2024/02/29 10:17:38;;;;;;;;;;;;;;;7.61;100.00;95478.59;10349808;28;2125;-67
2024/02/29 10:22:41;;;;;;;;;;;;;;;7.23;100.00;95470.66;10349910;28;2062;-67
2024/02/29 10:27:44;;;;;;;;;;;;;;;7.11;100.00;95472.72;10354780;28;2017;-66
2024/02/29 10:32:46;;;;;;;;;;;;;;;7.71;100.00;95457.25;10346299;28;2083;-68
2024/02/29 10:37:49;;;;;;;;;;;;;;;8.22;100.00;95444.75;10350854;28;1992;-67
2024/02/29 10:42:55;;;;;;;;;;;;;;;8.16;100.00;95442.34;10349563;28;1924;-66
2024/02/29 10:48:00;;;;;;;;;;;;;;;8.01;100.00;95445.78;10360589;28;2305;-65
2024/02/29 10:53:03;;;;;;;;;;;;;;;7.66;100.00;95444.63;10362204;28;2085;-67
2024/02/29 10:58:06;;;;;;;;;;;;;;;7.92;100.00;95429.44;10358543;28;2049;-66
2024/02/29 11:03:12;;;;;;;;;;;;;;;8.40;100.00;95422.03;10360477;28;2041;-66
2024/02/29 11:08:15;;;;;;;;;;;;;;;8.15;100.00;95408.63;10355624;28;2285;-67
2024/02/29 11:13:19;;;;;;;;;;;;;;;7.73;100.00;95412.28;10356918;28;2109;-64
2024/02/29 11:18:22;;;;;;;;;;;;;;;7.50;100.00;95390.28;10361588;28;2046;-70
2024/02/29 11:23:25;;;;;;;;;;;;;;;7.89;100.00;95383.66;10371882;28;1946;-69
2024/02/29 11:28:28;;;;;;;;;;;;;;;8.07;100.00;95373.25;10357001;28;2133;-65
2024/02/29 11:33:31;;;;;;;;;;;;;;;7.95;100.00;95367.38;10363473;28;2160;-66
2024/02/29 11:38:35;;;;;;;;;;;;;;;8.57;100.00;95362.81;10368165;28;1997;-67
2024/02/29 11:43:43;;;;;;;;;;;;;;;9.02;100.00;95356.53;10350963;28;2033;-66
2024/02/29 11:48:48;;;;;;;;;;;;;;;8.85;100.00;95353.38;10376782;28;1918;-65
2024/02/29 11:53:59;;;;;;;;;;;;;;;8.65;100.00;95343.50;10352129;28;2403;-66
2024/02/29 11:59:02;;;;;;;;;;;;;;;8.62;100.00;95344.06;10348234;28;2269;-66
2024/02/29 12:04:04;;;;;;;;;;;;;;;8.72;100.00;95329.84;10357095;28;2195;-65
2024/02/29 12:09:10;;;;;;;;;;;;;;;9.09;100.00;95316.81;10372932;28;2034;-69
2024/02/29 12:14:13;;;;;;;;;;;;;;;9.60;100.00;95316.53;10374889;28;1991;-65
2024/02/29 12:19:16;;;;;;;;;;;;;;;9.48;100.00;95313.44;10361357;28;2170;-66
2024/02/29 12:24:19;;;;;;;;;;;;;;;8.91;100.00;95301.38;10357945;28;2130;-68
2024/02/29 12:29:22;;;;;;;;;;;;;;;9.02;100.00;95299.44;10355619;28;2054;-68
2024/02/29 12:34:24;;;;;;;;;;;;;;;8.49;100.00;95286.50;10348700;28;2682;-69
2024/02/29 12:39:27;;;;;;;;;;;;;;;8.96;100.00;95287.94;10347609;28;2224;-73
2024/02/29 12:44:30;;;;;;;;;;;;;;;9.03;100.00;95266.97;10349864;28;2239;-70
2024/02/29 12:49:32;;;;;;;;;;;;;;;8.98;100.00;95250.13;10353464;28;2062;-78
2024/02/29 12:54:36;;;;;;;;;;;;;;;9.00;100.00;95250.66;10357215;28;2251;-72
2024/02/29 12:59:39;;;;;;;;;;;;;;;8.30;100.00;95243.38;10363777;28;2333;-68
2024/02/29 13:04:42;;;;;;;;;;;;;;;8.26;100.00;95228.13;10353657;28;2040;-75
2024/02/29 13:09:45;;;;;;;;;;;;;;;8.64;100.00;95214.09;10351597;28;1873;-73
2024/02/29 13:14:48;;;;;;;;;;;;;;;8.24;100.00;95219.56;10352123;28;1975;-72
2024/02/29 13:19:50;;;;;;;;;;;;;;;8.64;100.00;95214.09;10349626;28;2440;-68
2024/02/29 13:24:52;;;;;;;;;;;;;;;8.32;100.00;95203.75;10356793;28;1922;-67
2024/02/29 13:29:55;;;;;;;;;;;;;;;8.16;100.00;95188.00;10361303;28;2086;-66
2024/02/29 13:34:58;;;;;;;;;;;;;;;8.31;100.00;95185.28;10354651;28;2178;-69
2024/02/29 13:40:00;;;;;;;;;;;;;;;8.12;100.00;95167.13;10357649;28;2191;-65
2024/02/29 13:45:05;;;;;;;;;;;;;;;8.22;100.00;95157.47;10362678;28;2221;-66
2024/02/29 13:50:08;;;;;;;;;;;;;;;8.46;100.00;95153.13;10357003;28;1909;-66
2024/02/29 13:55:10;;;;;;;;;;;;;;;8.13;100.00;95149.97;10361732;28;2033;-66
2024/02/29 14:00:13;;;;;;;;;;;;;;;8.03;100.00;95131.28;10357627;28;2569;-65
2024/02/29 14:05:18;;;;;;;;;;;;;;;8.23;100.00;95143.00;10356482;28;1969;-66
2024/02/29 14:10:22;;;;;;;;;;;;;;;7.66;100.00;95137.00;10361081;28;2054;-67
2024/02/29 14:15:25;;;;;;;;;;;;;;;8.11;100.00;95130.72;10356160;28;2089;-67
2024/02/29 14:20:28;;;;;;;;;;;;;;;7.92;100.00;95132.41;10350990;28;1990;-72
2024/02/29 14:25:30;;;;;;;;;;;;;;;7.87;100.00;95119.03;10361101;28;1983;-64
2024/02/29 14:30:33;;;;;;;;;;;;;;;7.68;100.00;95118.81;10368918;28;2192;-67
2024/02/29 14:35:36;;;;;;;;;;;;;;;7.65;100.00;95099.84;10362382;28;2113;-65
2024/02/29 14:40:39;;;;;;;;;;;;;;;7.38;100.00;95089.44;10352838;28;2077;-65
2024/02/29 14:45:41;;;;;;;;;;;;;;;7.61;100.00;95088.06;10368564;28;2087;-67
2024/02/29 14:50:44;;;;;;;;;;;;;;;7.70;100.00;95091.78;10369698;28;2486;-66
2024/02/29 14:55:49;;;;;;;;;;;;;;;7.57;100.00;95077.91;10359642;28;1949;-65
2024/02/29 15:00:52;;;;;;;;;;;;;;;7.53;100.00;95076.84;10367313;28;2086;-66
2024/02/29 15:05:54;;;;;;;;;;;;;;;7.53;100.00;95084.88;10355892;28;1960;-67
2024/02/29 15:11:02;;;;;;;;;;;;;;;7.36;100.00;95071.00;10353816;28;2041;-66
2024/02/29 15:16:10;;;;;;;;;;;;;;;7.38;100.00;95068.88;10365186;28;1993;-66
2024/02/29 15:21:12;;;;;;;;;;;;;;;7.29;100.00;95070.47;10368815;28;1989;-66
2024/02/29 15:26:15;;;;;;;;;;;;;;;7.32;100.00;95053.91;10358498;28;2407;-66
2024/02/29 15:31:20;;;;;;;;;;;;;;;7.49;100.00;95058.94;10358084;28;2125;-67
2024/02/29 15:36:23;;;;;;;;;;;;;;;7.25;100.00;95042.66;10360361;28;2175;-67
2024/02/29 15:41:26;;;;;;;;;;;;;;;7.09;100.00;95041.91;10362500;28;1910;-66
2024/02/29 15:46:29;;;;;;;;;;;;;;;6.96;100.00;95035.22;10360005;28;2195;-66
2024/02/29 15:51:32;;;;;;;;;;;;;;;6.96;100.00;95024.53;10369412;28;2027;-68
2024/02/29 15:56:35;;;;;;;;;;;;;;;7.07;100.00;95013.84;10350335;28;1928;-68
2024/02/29 16:01:39;;;;;;;;;;;;;;;6.97;100.00;95014.66;10347898;28;2290;-64
2024/02/29 16:06:43;;;;;;;;;;;;;;;6.89;100.00;95005.31;10360379;28;1972;-66
2024/02/29 16:11:48;;;;;;;;;;;;;;;6.69;100.00;95010.69;10358312;28;2256;-66
2024/02/29 16:16:50;;;;;;;;;;;;;;;6.69;100.00;95000.78;10342082;28;2077;-68
2024/02/29 16:21:57;;;;;;;;;;;;;;;6.53;100.00;94991.16;10356872;28;2058;-68
2024/02/29 16:27:00;;;;;;;;;;;;;;;6.56;100.00;94987.97;10352457;28;1910;-71
2024/02/29 16:32:03;;;;;;;;;;;;;;;6.42;100.00;94992.22;10358849;28;2038;-72
2024/02/29 16:37:06;;;;;;;;;;;;;;;6.33;100.00;94994.63;10356625;28;2329;-73
2024/02/29 16:42:09;;;;;;;;;;;;;;;6.23;100.00;94991.94;10352424;28;1921;-65
2024/02/29 16:47:15;;;;;;;;;;;;;;;6.17;100.00;94982.31;10354017;28;2086;-67
2024/02/29 16:52:17;;;;;;;;;;;;;;;6.08;100.00;94976.72;10352200;28;2121;-66
2024/02/29 16:57:20;;;;;;;;;;;;;;;6.03;100.00;94978.56;10359784;28;2150;-69
2024/02/29 17:02:24;;;;;;;;;;;;;;;5.95;100.00;94972.69;10370411;28;1977;-67
2024/02/29 17:07:27;;;;;;;;;;;;;;;5.89;100.00;94979.03;10352054;28;1918;-71
2024/02/29 17:12:30;;;;;;;;;;;;;;;5.86;100.00;94979.59;10352145;28;2899;-66
2024/02/29 17:17:33;;;;;;;;;;;;;;;5.77;100.00;94970.47;10348574;28;2136;-65
2024/02/29 17:22:48;;;;;;;;;;;;;;;5.75;100.00;94979.81;10353592;28;2016;-67
2024/02/29 17:27:50;;;;;;;;;;;;;;;5.69;100.00;94969.13;10365528;28;2715;-66
2024/02/29 17:32:58;;;;;;;;;;;;;;;5.63;100.00;94964.03;10358445;28;2450;-65
2024/02/29 17:38:01;;;;;;;;;;;;;;;5.55;100.00;94960.03;10372504;28;2024;-67
2024/02/29 17:43:04;;;;;;;;;;;;;;;5.51;100.00;94955.47;10373959;28;1902;-67
2024/02/29 17:48:07;;;;;;;;;;;;;;;5.34;100.00;94961.81;10367764;28;1932;-65
2024/02/29 17:53:10;;;;;;;;;;;;;;;5.39;100.00;94956.47;10356514;28;2112;-65
2024/02/29 17:58:13;;;;;;;;;;;;;;;5.37;100.00;94945.28;10359755;28;2243;-67
2024/02/29 18:03:16;;;;;;;;;;;;;;;5.35;100.00;94951.97;10356018;28;2072;-65
2024/02/29 18:08:18;;;;;;;;;;;;;;;5.28;100.00;94941.53;10355545;28;2474;-65
2024/02/29 18:13:24;;;;;;;;;;;;;;;5.30;100.00;94935.94;10362005;28;1981;-67
2024/02/29 18:18:27;;;;;;;;;;;;;;;5.28;100.00;94924.72;10353766;28;2137;-68
2024/02/29 18:23:29;;;;;;;;;;;;;;;5.17;100.00;94923.91;10356170;28;2070;-65
2024/02/29 18:28:34;;;;;;;;;;;;;;;5.12;100.00;94921.22;10361342;28;2062;-70
2024/02/29 18:33:37;;;;;;;;;;;;;;;5.04;100.00;94919.03;10356790;28;2019;-65
2024/02/29 18:38:40;;;;;;;;;;;;;;;5.04;100.00;94919.84;10373331;28;2388;-65
2024/02/29 18:43:44;;;;;;;;;;;;;;;4.98;100.00;94909.44;10368615;28;2091;-65
2024/02/29 18:48:47;;;;;;;;;;;;;;;4.97;100.00;94913.97;10355127;28;2041;-65
2024/02/29 18:53:49;;;;;;;;;;;;;;;4.93;100.00;94906.72;10354907;28;2026;-65
2024/02/29 18:58:52;;;;;;;;;;;;;;;4.83;100.00;94896.81;10358510;28;2127;-64
2024/02/29 19:03:55;;;;;;;;;;;;;;;4.74;100.00;94898.38;10367230;28;2312;-64
2024/02/29 19:08:58;;;;;;;;;;;;;;;4.63;100.00;94886.88;10355656;28;2178;-66
2024/02/29 19:14:02;;;;;;;;;;;;;;;4.53;100.00;94890.28;10358605;28;2065;-70
2024/02/29 19:19:05;;;;;;;;;;;;;;;4.43;100.00;94887.53;10359861;28;1982;-65
2024/02/29 19:24:10;;;;;;;;;;;;;;;4.40;100.00;94897.91;10358118;28;1918;-65
2024/02/29 19:29:13;;;;;;;;;;;;;;;4.46;100.00;94889.72;10377115;28;2158;-65
2024/02/29 19:34:16;;;;;;;;;;;;;;;4.46;100.00;94891.56;10363141;28;2070;-65
2024/02/29 19:39:18;;;;;;;;;;;;;;;4.47;100.00;94871.88;10362751;28;1992;-65
2024/02/29 19:44:22;;;;;;;;;;;;;;;4.39;100.00;94885.66;10369571;28;2453;-66
2024/02/29 19:49:26;;;;;;;;;;;;;;;4.43;100.00;94879.56;10356881;28;2074;-71
2024/02/29 19:54:28;;;;;;;;;;;;;;;4.48;100.00;94868.16;10362590;28;2411;-67
2024/02/29 19:59:31;;;;;;;;;;;;;;;4.40;100.00;94853.47;10356019;28;1953;-67
2024/02/29 20:04:35;;;;;;;;;;;;;;;4.29;100.00;94849.16;10355936;28;2374;-65
2024/02/29 20:09:37;;;;;;;;;;;;;;;4.31;100.00;94847.81;10360930;28;2117;-65
2024/02/29 20:14:41;;;;;;;;;;;;;;;4.30;100.00;94835.56;10354721;28;2132;-65
2024/02/29 20:19:44;;;;;;;;;;;;;;;4.28;100.00;94832.38;10361827;28;1986;-68
2024/02/29 20:24:47;;;;;;;;;;;;;;;4.24;100.00;94841.94;10359332;28;2096;-64
2024/02/29 20:29:51;;;;;;;;;;;;;;;4.17;100.00;94852.00;10359929;28;2507;-64
2024/02/29 20:34:53;;;;;;;;;;;;;;;4.21;100.00;94852.28;10357601;28;2038;-66
2024/02/29 20:39:58;;;;;;;;;;;;;;;4.27;100.00;94848.59;10356840;28;2682;-73
2024/02/29 20:45:02;;;;;;;;;;;;;;;4.24;100.00;94855.22;10358071;28;2084;-67
2024/02/29 20:50:05;;;;;;;;;;;;;;;4.30;100.00;94838.25;10352062;28;2003;-66
2024/02/29 20:55:08;;;;;;;;;;;;;;;4.23;100.00;94835.00;10368487;28;2074;-66
2024/02/29 21:00:12;;;;;;;;;;;;;;;4.17;100.00;94841.34;10354148;28;2063;-66
2024/02/29 21:05:14;;;;;;;;;;;;;;;4.22;100.00;94817.44;10357882;28;2083;-66
2024/02/29 21:10:17;;;;;;;;;;;;;;;4.21;100.00;94820.38;10355844;28;2058;-66
2024/02/29 21:15:20;;;;;;;;;;;;;;;4.12;100.00;94817.38;10356435;28;2137;-65
2024/02/29 21:20:26;;;;;;;;;;;;;;;4.15;100.00;94810.75;10368465;28;2101;-66
2024/02/29 21:25:29;;;;;;;;;;;;;;;4.11;100.00;94805.13;10354087;28;2068;-65
2024/02/29 21:30:32;;;;;;;;;;;;;;;4.02;100.00;94796.84;10353342;28;1958;-67
2024/02/29 21:35:36;;;;;;;;;;;;;;;3.96;100.00;94797.06;10351475;28;2269;-66
2024/02/29 21:40:38;;;;;;;;;;;;;;;3.95;100.00;94788.28;10356993;28;1989;-66
2024/02/29 21:45:41;;;;;;;;;;;;;;;3.99;100.00;94776.06;10358171;28;1982;-65
2024/02/29 21:50:45;;;;;;;;;;;;;;;4.05;100.00;94766.28;10368077;28;1964;-66
2024/02/29 21:55:48;;;;;;;;;;;;;;;4.03;100.00;94768.41;10357662;28;2042;-65
2024/02/29 22:00:51;;;;;;;;;;;;;;;3.98;100.00;94768.34;10347747;28;2152;-65
2024/02/29 22:05:54;;;;;;;;;;;;;;;3.96;100.00;94763.31;10352274;28;2199;-65
2024/02/29 22:10:56;;;;;;;;;;;;;;;3.93;100.00;94750.50;10353509;28;1979;-66
2024/02/29 22:15:59;;;;;;;;;;;;;;;3.91;100.00;94735.88;10353109;28;1949;-66
2024/02/29 22:21:02;;;;;;;;;;;;;;;3.84;100.00;94719.34;10357409;28;2125;-65
2024/02/29 22:26:04;;;;;;;;;;;;;;;3.75;100.00;94732.31;10347550;28;2106;-66
2024/02/29 22:31:07;;;;;;;;;;;;;;;3.62;100.00;94733.56;10363283;28;2123;-66
2024/02/29 22:36:10;;;;;;;;;;;;;;;3.51;100.00;94740.66;10349394;28;2334;-66
2024/02/29 22:41:13;;;;;;;;;;;;;;;3.66;100.00;94734.66;10352345;28;2038;-64
2024/02/29 22:46:21;;;;;;;;;;;;;;;3.59;100.00;94734.06;10354753;28;2054;-66
2024/02/29 22:51:24;;;;;;;;;;;;;;;3.53;100.00;94735.88;10352824;28;2217;-66
2024/02/29 22:56:27;;;;;;;;;;;;;;;3.53;100.00;94743.06;10358467;28;2113;-66
2024/02/29 23:01:31;;;;;;;;;;;;;;;3.44;100.00;94740.09;10353224;28;1990;-65
2024/02/29 23:06:33;;;;;;;;;;;;;;;3.34;100.00;94724.06;10350620;28;2259;-66
2024/02/29 23:11:36;;;;;;;;;;;;;;;3.19;100.00;94708.81;10351474;28;2157;-68
2024/02/29 23:16:38;;;;;;;;;;;;;;;3.25;100.00;94707.00;10361036;28;2052;-65
2024/02/29 23:21:41;;;;;;;;;;;;;;;3.17;100.00;94702.13;10349784;28;2090;-66
2024/02/29 23:26:44;;;;;;;;;;;;;;;3.18;100.00;94696.59;10352673;28;2452;-66
2024/02/29 23:31:47;;;;;;;;;;;;;;;3.33;100.00;94693.25;10353970;28;2046;-71
2024/02/29 23:36:50;;;;;;;;;;;;;;;3.19;100.00;94703.50;10356182;28;2211;-71
2024/02/29 23:41:53;;;;;;;;;;;;;;;3.09;100.00;94715.88;10350897;28;1906;-72
2024/02/29 23:46:56;;;;;;;;;;;;;;;3.09;100.00;94708.72;10348971;28;2149;-67
2024/02/29 23:51:58;;;;;;;;;;;;;;;3.08;100.00;94709.75;10357223;28;2125;-66
2024/02/29 23:57:01;;;;;;;;;;;;;;;3.04;100.00;94711.31;10353812;28;2081;-71
